sensor_id;sensor_type;location;lat;lon;timestamp;pressure;altitude;pressure_sealevel;temperature;humidity
51452;BME280;37521;52.020;-1.740;2022-07-25T00:02:25;99139.59;;;14.86;100.00
51452;BME280;37521;52.020;-1.740;2022-07-25T00:04:53;99128.13;;;14.86;100.00
51452;BME280;37521;52.020;-1.740;2022-07-25T00:07:25;99127.16;;;14.87;100.00
51452;BME280;37521;52.020;-1.740;2022-07-25T00:09:53;99108.91;;;14.82;100.00
51452;BME280;37521;52.020;-1.740;2022-07-25T00:12:22;99114.56;;;14.78;100.00
51452;BME280;37521;52.020;-1.740;2022-07-25T00:14:50;99115.66;;;14.75;100.00
51452;BME280;37521;52.020;-1.740;2022-07-25T00:17:18;99116.50;;;14.76;100.00
51452;BME280;37521;52.020;-1.740;2022-07-25T00:19:47;99118.19;;;14.77;100.00
51452;BME280;37521;52.020;-1.740;2022-07-25T00:22:15;99116.88;;;14.82;100.00
51452;BME280;37521;52.020;-1.740;2022-07-25T00:24:45;99106.25;;;14.82;100.00
51452;BME280;37521;52.020;-1.740;2022-07-25T00:27:13;99102.16;;;14.78;100.00
51452;BME280;37521;52.020;-1.740;2022-07-25T00:29:41;99094.03;;;14.68;100.00
51452;BME280;37521;52.020;-1.740;2022-07-25T00:32:10;99092.81;;;14.61;100.00
51452;BME280;37521;52.020;-1.740;2022-07-25T00:34:38;99090.41;;;14.58;100.00
51452;BME280;37521;52.020;-1.740;2022-07-25T00:37:07;99087.00;;;14.56;100.00
51452;BME280;37521;52.020;-1.740;2022-07-25T00:39:35;99090.78;;;14.54;100.00
51452;BME280;37521;52.020;-1.740;2022-07-25T00:42:05;99084.81;;;14.50;100.00
51452;BME280;37521;52.020;-1.740;2022-07-25T00:44:34;99086.66;;;14.50;100.00
51452;BME280;37521;52.020;-1.740;2022-07-25T00:47:02;99080.63;;;14.48;100.00
51452;BME280;37521;52.020;-1.740;2022-07-25T00:49:31;99079.78;;;14.47;100.00
51452;BME280;37521;52.020;-1.740;2022-07-25T00:51:59;99077.44;;;14.42;100.00
51452;BME280;37521;52.020;-1.740;2022-07-25T00:54:28;99077.69;;;14.39;100.00
51452;BME280;37521;52.020;-1.740;2022-07-25T00:56:57;99079.97;;;14.44;100.00
51452;BME280;37521;52.020;-1.740;2022-07-25T00:59:26;99087.63;;;14.49;100.00
51452;BME280;37521;52.020;-1.740;2022-07-25T01:01:55;99084.63;;;14.53;100.00
51452;BME280;37521;52.020;-1.740;2022-07-25T01:04:23;99072.03;;;14.55;100.00
51452;BME280;37521;52.020;-1.740;2022-07-25T01:06:52;99075.94;;;14.51;100.00
51452;BME280;37521;52.020;-1.740;2022-07-25T01:09:21;99084.81;;;14.50;100.00
51452;BME280;37521;52.020;-1.740;2022-07-25T01:11:50;99078.81;;;14.48;100.00
51452;BME280;37521;52.020;-1.740;2022-07-25T01:14:18;99081.78;;;14.43;100.00
51452;BME280;37521;52.020;-1.740;2022-07-25T01:16:48;99078.53;;;14.40;100.00
51452;BME280;37521;52.020;-1.740;2022-07-25T01:19:16;99075.75;;;14.41;100.00
51452;BME280;37521;52.020;-1.740;2022-07-25T01:21:46;99072.00;;;14.44;100.00
51452;BME280;37521;52.020;-1.740;2022-07-25T01:24:14;99081.47;;;14.48;100.00
51452;BME280;37521;52.020;-1.740;2022-07-25T01:26:42;99084.63;;;14.53;100.00
51452;BME280;37521;52.020;-1.740;2022-07-25T01:29:10;99082.66;;;14.55;100.00
51452;BME280;37521;52.020;-1.740;2022-07-25T01:31:39;99083.38;;;14.57;100.00
51452;BME280;37521;52.020;-1.740;2022-07-25T01:34:07;99072.03;;;14.55;100.00
51452;BME280;37521;52.020;-1.740;2022-07-25T01:36:36;99065.31;;;14.51;100.00
51452;BME280;37521;52.020;-1.740;2022-07-25T01:39:06;99068.50;;;14.43;100.00
51452;BME280;37521;52.020;-1.740;2022-07-25T01:41:34;99072.50;;;14.38;100.00
51452;BME280;37521;52.020;-1.740;2022-07-25T01:44:03;99064.88;;;14.33;100.00
51452;BME280;37521;52.020;-1.740;2022-07-25T01:46:32;99061.84;;;14.27;100.00
51452;BME280;37521;52.020;-1.740;2022-07-25T01:49:00;99057.13;;;14.19;100.00
51452;BME280;37521;52.020;-1.740;2022-07-25T01:51:29;99060.81;;;14.16;100.00
51452;BME280;37521;52.020;-1.740;2022-07-25T01:53:57;99068.78;;;14.16;100.00
51452;BME280;37521;52.020;-1.740;2022-07-25T01:56:27;99070.59;;;14.16;100.00
51452;BME280;37521;52.020;-1.740;2022-07-25T01:58:57;99061.91;;;14.14;100.00
51452;BME280;37521;52.020;-1.740;2022-07-25T02:01:26;99070.00;;;14.12;100.00
51452;BME280;37521;52.020;-1.740;2022-07-25T02:03:55;99057.69;;;14.11;100.00
51452;BME280;37521;52.020;-1.740;2022-07-25T02:06:23;99068.31;;;14.11;100.00
51452;BME280;37521;52.020;-1.740;2022-07-25T02:08:51;99064.69;;;14.12;100.00
51452;BME280;37521;52.020;-1.740;2022-07-25T02:11:19;99070.84;;;14.13;100.00
51452;BME280;37521;52.020;-1.740;2022-07-25T02:13:49;99068.31;;;14.11;100.00
51452;BME280;37521;52.020;-1.740;2022-07-25T02:16:18;99059.47;;;14.11;100.00
51452;BME280;37521;52.020;-1.740;2022-07-25T02:18:55;99068.31;;;14.11;100.00
51452;BME280;37521;52.020;-1.740;2022-07-25T02:21:23;99048.53;;;14.15;100.00
51452;BME280;37521;52.020;-1.740;2022-07-25T02:23:52;99046.38;;;14.21;100.00
51452;BME280;37521;52.020;-1.740;2022-07-25T02:26:20;99065.47;;;14.26;100.00
51452;BME280;37521;52.020;-1.740;2022-07-25T02:28:50;99058.94;;;14.30;100.00
51452;BME280;37521;52.020;-1.740;2022-07-25T02:31:18;99053.41;;;14.33;100.00
51452;BME280;37521;52.020;-1.740;2022-07-25T02:33:46;99047.97;;;14.34;100.00
51452;BME280;37521;52.020;-1.740;2022-07-25T02:36:15;99050.50;;;14.36;100.00
51452;BME280;37521;52.020;-1.740;2022-07-25T02:38:44;99056.78;;;14.35;100.00
51452;BME280;37521;52.020;-1.740;2022-07-25T02:41:12;99051.34;;;14.36;100.00
51452;BME280;37521;52.020;-1.740;2022-07-25T02:43:40;99050.50;;;14.36;100.00
51452;BME280;37521;52.020;-1.740;2022-07-25T02:46:10;99042.78;;;14.33;100.00
51452;BME280;37521;52.020;-1.740;2022-07-25T02:48:38;99038.66;;;14.29;100.00
51452;BME280;37521;52.020;-1.740;2022-07-25T02:51:07;99035.28;;;14.27;100.00
51452;BME280;37521;52.020;-1.740;2022-07-25T02:53:35;99024.28;;;14.20;100.00
51452;BME280;37521;52.020;-1.740;2022-07-25T02:56:23;99040.69;;;14.14;100.00
51452;BME280;37521;52.020;-1.740;2022-07-25T02:58:56;99042.84;;;14.09;100.00
51452;BME280;37521;52.020;-1.740;2022-07-25T03:01:26;99039.47;;;14.07;100.00
51452;BME280;37521;52.020;-1.740;2022-07-25T03:03:54;99050.94;;;14.07;100.00
51452;BME280;37521;52.020;-1.740;2022-07-25T03:06:22;99045.63;;;14.07;100.00
51452;BME280;37521;52.020;-1.740;2022-07-25T03:08:51;99042.13;;;14.07;100.00
51452;BME280;37521;52.020;-1.740;2022-07-25T03:11:20;99048.72;;;14.01;100.00
51452;BME280;37521;52.020;-1.740;2022-07-25T03:13:48;99047.38;;;13.96;100.00
51452;BME280;37521;52.020;-1.740;2022-07-25T03:16:16;99042.19;;;13.94;100.00
51452;BME280;37521;52.020;-1.740;2022-07-25T03:18:46;99043.16;;;13.93;100.00
51452;BME280;37521;52.020;-1.740;2022-07-25T03:21:14;99046.78;;;13.92;100.00
51452;BME280;37521;52.020;-1.740;2022-07-25T03:23:43;99050.41;;;13.91;100.00
51452;BME280;37521;52.020;-1.740;2022-07-25T03:26:18;99052.31;;;13.89;100.00
51452;BME280;37521;52.020;-1.740;2022-07-25T03:28:47;99038.19;;;13.88;100.00
51452;BME280;37521;52.020;-1.740;2022-07-25T03:31:15;99043.50;;;13.88;100.00
51452;BME280;37521;52.020;-1.740;2022-07-25T03:33:44;99044.34;;;13.89;100.00
51452;BME280;37521;52.020;-1.740;2022-07-25T03:36:13;99039.03;;;13.89;100.00
51452;BME280;37521;52.020;-1.740;2022-07-25T03:38:42;99043.38;;;13.90;100.00
51452;BME280;37521;52.020;-1.740;2022-07-25T03:41:11;99047.50;;;13.94;100.00
51452;BME280;37521;52.020;-1.740;2022-07-25T03:43:39;99049.06;;;13.97;100.00
51452;BME280;37521;52.020;-1.740;2022-07-25T03:46:07;99045.69;;;13.95;100.00
51452;BME280;37521;52.020;-1.740;2022-07-25T03:48:36;99052.09;;;13.92;100.00
51452;BME280;37521;52.020;-1.740;2022-07-25T03:51:04;99050.41;;;13.91;100.00
51452;BME280;37521;52.020;-1.740;2022-07-25T03:53:34;99064.41;;;13.93;100.00
51452;BME280;37521;52.020;-1.740;2022-07-25T03:56:23;99059.09;;;13.93;100.00
51452;BME280;37521;52.020;-1.740;2022-07-25T03:58:51;99048.69;;;13.90;100.00
51452;BME280;37521;52.020;-1.740;2022-07-25T04:01:19;99058.31;;;13.80;100.00
51452;BME280;37521;52.020;-1.740;2022-07-25T04:03:48;99053.19;;;13.66;100.00
51452;BME280;37521;52.020;-1.740;2022-07-25T04:06:16;99050.34;;;13.56;100.00
51452;BME280;37521;52.020;-1.740;2022-07-25T04:08:46;99051.66;;;13.50;100.00
51452;BME280;37521;52.020;-1.740;2022-07-25T04:11:15;99049.47;;;13.44;100.00
51452;BME280;37521;52.020;-1.740;2022-07-25T04:13:43;99054.03;;;13.42;100.00
51452;BME280;37521;52.020;-1.740;2022-07-25T04:16:12;99047.03;;;13.41;100.00
51452;BME280;37521;52.020;-1.740;2022-07-25T04:18:48;99053.19;;;13.42;100.00
51452;BME280;37521;52.020;-1.740;2022-07-25T04:21:17;99045.84;;;13.45;100.00
51452;BME280;37521;52.020;-1.740;2022-07-25T04:23:47;99044.91;;;13.46;100.00
51452;BME280;37521;52.020;-1.740;2022-07-25T04:26:15;99037.91;;;13.45;100.00
51452;BME280;37521;52.020;-1.740;2022-07-25T04:28:44;99033.56;;;13.44;100.00
51452;BME280;37521;52.020;-1.740;2022-07-25T04:31:13;99032.59;;;13.45;100.00
51452;BME280;37521;52.020;-1.740;2022-07-25T04:33:41;99028.75;;;13.49;100.00
51452;BME280;37521;52.020;-1.740;2022-07-25T04:36:10;99029.25;;;13.54;100.00
51452;BME280;37521;52.020;-1.740;2022-07-25T04:38:39;99019.50;;;13.55;100.00
51452;BME280;37521;52.020;-1.740;2022-07-25T04:41:08;99020.13;;;13.58;100.00
51452;BME280;37521;52.020;-1.740;2022-07-25T04:43:37;99026.16;;;13.60;100.00
51452;BME280;37521;52.020;-1.740;2022-07-25T04:46:12;99035.69;;;13.63;100.00
51452;BME280;37521;52.020;-1.740;2022-07-25T04:48:45;99027.63;;;13.65;100.00
51452;BME280;37521;52.020;-1.740;2022-07-25T04:51:14;99034.63;;;13.66;100.00
51452;BME280;37521;52.020;-1.740;2022-07-25T04:53:42;99031.97;;;13.66;100.00
51452;BME280;37521;52.020;-1.740;2022-07-25T04:56:12;99031.22;;;13.63;100.00
51452;BME280;37521;52.020;-1.740;2022-07-25T04:58:40;99029.53;;;13.62;100.00
51452;BME280;37521;52.020;-1.740;2022-07-25T05:01:09;99031.59;;;13.59;100.00
51452;BME280;37521;52.020;-1.740;2022-07-25T05:03:38;99034.88;;;13.50;100.00
51452;BME280;37521;52.020;-1.740;2022-07-25T05:06:16;99048.72;;;13.42;100.00
51452;BME280;37521;52.020;-1.740;2022-07-25T05:08:45;99051.81;;;13.36;100.00
51452;BME280;37521;52.020;-1.740;2022-07-25T05:11:15;99055.66;;;13.32;100.00
51452;BME280;37521;52.020;-1.740;2022-07-25T05:13:43;99049.41;;;13.33;100.00
51452;BME280;37521;52.020;-1.740;2022-07-25T05:16:11;99061.94;;;13.31;100.00
51452;BME280;37521;52.020;-1.740;2022-07-25T05:18:40;99053.97;;;13.31;100.00
51452;BME280;37521;52.020;-1.740;2022-07-25T05:21:09;99056.84;;;13.28;100.00
51452;BME280;37521;52.020;-1.740;2022-07-25T05:23:40;99052.38;;;13.28;100.00
51452;BME280;37521;52.020;-1.740;2022-07-25T05:26:08;99041.66;;;13.30;100.00
51452;BME280;37521;52.020;-1.740;2022-07-25T05:28:38;99052.78;;;13.35;100.00
51452;BME280;37521;52.020;-1.740;2022-07-25T05:31:06;99047.28;;;13.38;100.00
51452;BME280;37521;52.020;-1.740;2022-07-25T05:33:34;99040.66;;;13.44;100.00
51452;BME280;37521;52.020;-1.740;2022-07-25T05:36:03;99041.03;;;13.50;100.00
51452;BME280;37521;52.020;-1.740;2022-07-25T05:38:32;99040.59;;;13.56;100.00
51452;BME280;37521;52.020;-1.740;2022-07-25T05:41:00;99045.56;;;13.61;100.00
51452;BME280;37521;52.020;-1.740;2022-07-25T05:43:28;99047.38;;;13.60;100.00
51452;BME280;37521;52.020;-1.740;2022-07-25T05:46:01;99042.19;;;13.59;100.00
51452;BME280;37521;52.020;-1.740;2022-07-25T05:48:30;99047.81;;;13.54;100.00
51452;BME280;37521;52.020;-1.740;2022-07-25T05:50:58;99050.19;;;13.46;100.00
51452;BME280;37521;52.020;-1.740;2022-07-25T05:53:27;99048.00;;;13.40;100.00
51452;BME280;37521;52.020;-1.740;2022-07-25T05:55:55;99068.81;;;13.33;100.00
51452;BME280;37521;52.020;-1.740;2022-07-25T05:58:23;99056.41;;;13.34;100.00
51452;BME280;37521;52.020;-1.740;2022-07-25T06:00:56;99057.44;;;13.44;100.00
51452;BME280;37521;52.020;-1.740;2022-07-25T06:03:27;99051.44;;;13.53;100.00
51452;BME280;37521;52.020;-1.740;2022-07-25T06:05:55;99065.94;;;13.60;100.00
51452;BME280;37521;52.020;-1.740;2022-07-25T06:08:23;99069.38;;;13.74;100.00
51452;BME280;37521;52.020;-1.740;2022-07-25T06:10:55;99060.50;;;13.86;100.00
51452;BME280;37521;52.020;-1.740;2022-07-25T06:13:25;99067.56;;;13.98;100.00
51452;BME280;37521;52.020;-1.740;2022-07-25T06:15:54;99057.19;;;14.06;100.00
51452;BME280;37521;52.020;-1.740;2022-07-25T06:18:23;99066.50;;;14.12;100.00
51452;BME280;37521;52.020;-1.740;2022-07-25T06:20:54;99057.00;;;14.21;100.00
51452;BME280;37521;52.020;-1.740;2022-07-25T06:23:22;99059.06;;;14.28;100.00
51452;BME280;37521;52.020;-1.740;2022-07-25T06:25:53;99068.84;;;14.28;100.00
51452;BME280;37521;52.020;-1.740;2022-07-25T06:28:22;99067.16;;;14.27;100.00
51452;BME280;37521;52.020;-1.740;2022-07-25T06:30:51;99069.09;;;14.25;100.00
51452;BME280;37521;52.020;-1.740;2022-07-25T06:33:19;99084.25;;;14.23;100.00
51452;BME280;37521;52.020;-1.740;2022-07-25T06:35:47;99085.47;;;14.18;100.00
51452;BME280;37521;52.020;-1.740;2022-07-25T06:38:17;99079.41;;;14.16;100.00
51452;BME280;37521;52.020;-1.740;2022-07-25T06:40:45;99090.03;;;14.16;100.00
51452;BME280;37521;52.020;-1.740;2022-07-25T06:43:13;99088.84;;;14.21;100.00
51452;BME280;37521;52.020;-1.740;2022-07-25T06:45:42;99077.97;;;14.24;100.00
51452;BME280;37521;52.020;-1.740;2022-07-25T06:48:14;99073.31;;;14.27;100.00
51452;BME280;37521;52.020;-1.740;2022-07-25T06:50:42;99080.09;;;14.31;100.00
51452;BME280;37521;52.020;-1.740;2022-07-25T06:53:11;99073.69;;;14.34;100.00
51452;BME280;37521;52.020;-1.740;2022-07-25T06:55:40;99085.00;;;14.36;100.00
51452;BME280;37521;52.020;-1.740;2022-07-25T06:58:09;99078.75;;;14.37;100.00
51452;BME280;37521;52.020;-1.740;2022-07-25T07:00:37;99088.06;;;14.42;100.00
51452;BME280;37521;52.020;-1.740;2022-07-25T07:03:06;99083.41;;;14.46;100.00
51452;BME280;37521;52.020;-1.740;2022-07-25T07:05:34;99082.31;;;14.49;100.00
51452;BME280;37521;52.020;-1.740;2022-07-25T07:08:03;99081.69;;;14.45;100.00
51452;BME280;37521;52.020;-1.740;2022-07-25T07:10:32;99076.84;;;14.39;100.00
51452;BME280;37521;52.020;-1.740;2022-07-25T07:13:04;99082.63;;;14.33;100.00
51452;BME280;37521;52.020;-1.740;2022-07-25T07:15:34;99081.13;;;14.29;100.00
51452;BME280;37521;52.020;-1.740;2022-07-25T07:18:04;99081.13;;;14.29;100.00
51452;BME280;37521;52.020;-1.740;2022-07-25T07:20:33;99088.88;;;14.32;100.00
51452;BME280;37521;52.020;-1.740;2022-07-25T07:23:01;99090.09;;;14.39;100.00
51452;BME280;37521;52.020;-1.740;2022-07-25T07:25:32;99088.19;;;14.41;100.00
51452;BME280;37521;52.020;-1.740;2022-07-25T07:28:00;99074.78;;;14.42;100.00
51452;BME280;37521;52.020;-1.740;2022-07-25T07:30:31;99097.19;;;14.51;100.00
51452;BME280;37521;52.020;-1.740;2022-07-25T07:33:19;99088.22;;;14.63;100.00
51452;BME280;37521;52.020;-1.740;2022-07-25T07:35:48;99103.34;;;14.74;100.00
51452;BME280;37521;52.020;-1.740;2022-07-25T07:38:16;99105.66;;;14.79;100.00
51452;BME280;37521;52.020;-1.740;2022-07-25T07:40:44;99100.34;;;14.79;100.00
51452;BME280;37521;52.020;-1.740;2022-07-25T07:43:13;99112.03;;;14.76;100.00
51452;BME280;37521;52.020;-1.740;2022-07-25T07:45:43;99113.13;;;14.74;100.00
51452;BME280;37521;52.020;-1.740;2022-07-25T07:48:11;99116.75;;;14.84;100.00
51452;BME280;37521;52.020;-1.740;2022-07-25T07:50:39;99119.19;;;14.98;100.00
51452;BME280;37521;52.020;-1.740;2022-07-25T07:53:08;99126.94;;;15.12;100.00
51452;BME280;37521;52.020;-1.740;2022-07-25T07:55:36;99115.78;;;15.30;100.00
51452;BME280;37521;52.020;-1.740;2022-07-25T07:58:22;99111.16;;;15.43;100.00
51452;BME280;37521;52.020;-1.740;2022-07-25T08:00:52;99120.97;;;15.42;100.00
51452;BME280;37521;52.020;-1.740;2022-07-25T08:03:20;99122.31;;;15.37;100.00
51452;BME280;37521;52.020;-1.740;2022-07-25T08:05:49;99123.63;;;15.31;100.00
51452;BME280;37521;52.020;-1.740;2022-07-25T08:08:18;99123.50;;;15.44;100.00
51452;BME280;37521;52.020;-1.740;2022-07-25T08:10:48;99125.91;;;15.58;100.00
51452;BME280;37521;52.020;-1.740;2022-07-25T08:13:24;99121.81;;;15.65;100.00
51452;BME280;37521;52.020;-1.740;2022-07-25T08:15:55;99124.97;;;15.91;100.00
51452;BME280;37521;52.020;-1.740;2022-07-25T08:18:25;99112.91;;;16.19;100.00
51452;BME280;37521;52.020;-1.740;2022-07-25T08:20:56;99122.78;;;16.28;100.00
51452;BME280;37521;52.020;-1.740;2022-07-25T08:23:24;99133.72;;;16.25;100.00
51452;BME280;37521;52.020;-1.740;2022-07-25T08:25:54;99135.81;;;16.31;100.00
51452;BME280;37521;52.020;-1.740;2022-07-25T08:28:22;99134.47;;;16.37;100.00
51452;BME280;37521;52.020;-1.740;2022-07-25T08:30:50;99140.13;;;16.44;100.00
51452;BME280;37521;52.020;-1.740;2022-07-25T08:33:20;99138.91;;;16.48;100.00
51452;BME280;37521;52.020;-1.740;2022-07-25T08:35:50;99137.69;;;16.52;100.00
51452;BME280;37521;52.020;-1.740;2022-07-25T08:38:20;99141.31;;;16.51;100.00
51452;BME280;37521;52.020;-1.740;2022-07-25T08:40:49;99130.91;;;16.48;100.00
51452;BME280;37521;52.020;-1.740;2022-07-25T08:43:17;99140.78;;;16.57;100.00
51452;BME280;37521;52.020;-1.740;2022-07-25T08:45:47;99139.69;;;16.59;100.00
51452;BME280;37521;52.020;-1.740;2022-07-25T08:48:17;99144.19;;;16.59;100.00
51452;BME280;37521;52.020;-1.740;2022-07-25T08:50:47;99141.91;;;16.54;100.00
51452;BME280;37521;52.020;-1.740;2022-07-25T08:53:17;99137.13;;;16.58;100.00
51452;BME280;37521;52.020;-1.740;2022-07-25T08:56:03;99140.72;;;16.68;100.00
51452;BME280;37521;52.020;-1.740;2022-07-25T08:58:46;99139.91;;;16.88;100.00
51452;BME280;37521;52.020;-1.740;2022-07-25T09:01:15;99131.53;;;17.03;100.00
51452;BME280;37521;52.020;-1.740;2022-07-25T09:03:43;99145.56;;;17.05;100.00
51452;BME280;37521;52.020;-1.740;2022-07-25T09:06:16;99141.72;;;17.19;100.00
51452;BME280;37521;52.020;-1.740;2022-07-25T09:09:03;99140.63;;;17.31;100.00
51452;BME280;37521;52.020;-1.740;2022-07-25T09:11:40;99153.88;;;17.32;100.00
51452;BME280;37521;52.020;-1.740;2022-07-25T09:14:10;99147.41;;;17.35;100.00
51452;BME280;37521;52.020;-1.740;2022-07-25T09:16:42;99153.75;;;17.43;100.00
51452;BME280;37521;52.020;-1.740;2022-07-25T09:19:13;99167.13;;;17.53;100.00
51452;BME280;37521;52.020;-1.740;2022-07-25T09:21:45;99168.22;;;17.51;100.00
51452;BME280;37521;52.020;-1.740;2022-07-25T09:24:17;99165.44;;;17.52;100.00
51452;BME280;37521;52.020;-1.740;2022-07-25T09:26:51;99176.00;;;17.54;100.00
51452;BME280;37521;52.020;-1.740;2022-07-25T09:29:23;99171.34;;;17.56;100.00
51452;BME280;37521;52.020;-1.740;2022-07-25T09:31:54;99177.22;;;17.50;100.00
51452;BME280;37521;52.020;-1.740;2022-07-25T09:34:32;99180.88;;;17.49;100.00
51452;BME280;37521;52.020;-1.740;2022-07-25T09:37:03;99189.88;;;17.48;100.00
51452;BME280;37521;52.020;-1.740;2022-07-25T09:39:34;99185.63;;;17.45;100.00
51452;BME280;37521;52.020;-1.740;2022-07-25T09:42:28;99195.47;;;17.44;100.00
51452;BME280;37521;52.020;-1.740;2022-07-25T09:45:02;99199.41;;;17.40;100.00
51452;BME280;37521;52.020;-1.740;2022-07-25T09:47:31;99201.22;;;17.40;100.00
51452;BME280;37521;52.020;-1.740;2022-07-25T09:50:01;99197.72;;;17.39;100.00
51452;BME280;37521;52.020;-1.740;2022-07-25T09:52:31;99200.50;;;17.38;100.00
51452;BME280;37521;52.020;-1.740;2022-07-25T09:55:02;99192.91;;;17.33;100.00
51452;BME280;37521;52.020;-1.740;2022-07-25T09:57:30;99196.00;;;17.38;100.00
51452;BME280;37521;52.020;-1.740;2022-07-25T09:59:59;99189.25;;;17.34;100.00
51452;BME280;37521;52.020;-1.740;2022-07-25T10:02:45;99198.03;;;17.46;100.00
51452;BME280;37521;52.020;-1.740;2022-07-25T10:05:19;99194.63;;;17.84;100.00
51452;BME280;37521;52.020;-1.740;2022-07-25T10:07:54;99194.56;;;18.24;100.00
51452;BME280;37521;52.020;-1.740;2022-07-25T10:10:25;99197.69;;;18.39;99.52
51452;BME280;37521;52.020;-1.740;2022-07-25T10:13:02;99201.06;;;18.41;99.03
51452;BME280;37521;52.020;-1.740;2022-07-25T10:15:40;99206.09;;;18.25;97.91
51452;BME280;37521;52.020;-1.740;2022-07-25T10:18:09;99216.78;;;18.15;98.62
51452;BME280;37521;52.020;-1.740;2022-07-25T10:20:38;99212.81;;;18.10;98.92
51452;BME280;37521;52.020;-1.740;2022-07-25T10:23:20;99216.47;;;17.99;97.87
51452;BME280;37521;52.020;-1.740;2022-07-25T10:26:09;99212.13;;;18.08;100.00
51452;BME280;37521;52.020;-1.740;2022-07-25T10:28:42;99214.84;;;18.46;100.00
51452;BME280;37521;52.020;-1.740;2022-07-25T10:31:15;99222.88;;;18.46;99.40
51452;BME280;37521;52.020;-1.740;2022-07-25T10:33:46;99222.13;;;18.15;98.90
51452;BME280;37521;52.020;-1.740;2022-07-25T10:36:15;99233.56;;;17.77;100.00
51452;BME280;37521;52.020;-1.740;2022-07-25T10:38:45;99227.84;;;17.61;100.00
51452;BME280;37521;52.020;-1.740;2022-07-25T10:41:15;99225.31;;;17.59;99.54
51452;BME280;37521;52.020;-1.740;2022-07-25T10:43:44;99232.91;;;17.64;100.00
51452;BME280;37521;52.020;-1.740;2022-07-25T10:46:19;99234.13;;;17.81;100.00
51452;BME280;37521;52.020;-1.740;2022-07-25T10:48:58;99237.84;;;18.09;98.45
51452;BME280;37521;52.020;-1.740;2022-07-25T10:51:28;99230.88;;;18.27;95.88
51452;BME280;37521;52.020;-1.740;2022-07-25T10:53:58;99236.63;;;18.32;95.39
51452;BME280;37521;52.020;-1.740;2022-07-25T10:56:27;99244.09;;;18.48;96.54
51452;BME280;37521;52.020;-1.740;2022-07-25T10:58:57;99239.72;;;18.57;97.59
51452;BME280;37521;52.020;-1.740;2022-07-25T11:01:27;99234.53;;;18.55;95.87
51452;BME280;37521;52.020;-1.740;2022-07-25T11:03:57;99243.84;;;18.70;94.96
51452;BME280;37521;52.020;-1.740;2022-07-25T11:06:30;99242.13;;;18.98;92.12
51452;BME280;37521;52.020;-1.740;2022-07-25T11:09:02;99238.22;;;18.83;90.81
51452;BME280;37521;52.020;-1.740;2022-07-25T11:11:33;99250.84;;;18.62;92.23
51452;BME280;37521;52.020;-1.740;2022-07-25T11:14:02;99255.31;;;18.32;92.82
51452;BME280;37521;52.020;-1.740;2022-07-25T11:16:31;99258.25;;;18.10;93.96
51452;BME280;37521;52.020;-1.740;2022-07-25T11:18:59;99245.41;;;17.94;95.03
51452;BME280;37521;52.020;-1.740;2022-07-25T11:21:27;99264.81;;;17.96;95.12
51452;BME280;37521;52.020;-1.740;2022-07-25T11:23:55;99264.56;;;18.09;93.88
51452;BME280;37521;52.020;-1.740;2022-07-25T11:26:25;99262.19;;;18.15;94.37
51452;BME280;37521;52.020;-1.740;2022-07-25T11:28:53;99273.31;;;18.20;94.73
51452;BME280;37521;52.020;-1.740;2022-07-25T11:31:21;99275.84;;;18.22;93.22
51452;BME280;37521;52.020;-1.740;2022-07-25T11:33:50;99283.59;;;18.25;92.92
51452;BME280;37521;52.020;-1.740;2022-07-25T11:36:18;99276.56;;;18.24;92.48
51452;BME280;37521;52.020;-1.740;2022-07-25T11:38:47;99288.94;;;18.25;92.17
51452;BME280;37521;52.020;-1.740;2022-07-25T11:41:28;99286.44;;;18.33;92.20
51452;BME280;37521;52.020;-1.740;2022-07-25T11:43:56;99286.88;;;18.48;94.23
51452;BME280;37521;52.020;-1.740;2022-07-25T11:46:25;99290.28;;;18.60;92.08
51452;BME280;37521;52.020;-1.740;2022-07-25T11:49:02;99292.06;;;18.49;94.28
51452;BME280;37521;52.020;-1.740;2022-07-25T11:51:36;99295.69;;;18.19;92.46
51452;BME280;37521;52.020;-1.740;2022-07-25T11:54:08;99297.47;;;18.09;91.93
51452;BME280;37521;52.020;-1.740;2022-07-25T11:56:41;99305.63;;;18.08;93.67
51452;BME280;37521;52.020;-1.740;2022-07-25T11:59:10;99305.88;;;18.05;92.54
51452;BME280;37521;52.020;-1.740;2022-07-25T12:01:41;99312.66;;;17.99;93.99
51452;BME280;37521;52.020;-1.740;2022-07-25T12:04:12;99314.19;;;18.02;92.96
51452;BME280;37521;52.020;-1.740;2022-07-25T12:06:41;99310.28;;;18.15;92.61
51452;BME280;37521;52.020;-1.740;2022-07-25T12:09:11;99310.19;;;18.36;91.59
51452;BME280;37521;52.020;-1.740;2022-07-25T12:11:48;99311.91;;;18.57;90.90
51452;BME280;37521;52.020;-1.740;2022-07-25T12:14:16;99307.47;;;18.67;90.03
51452;BME280;37521;52.020;-1.740;2022-07-25T12:16:44;99309.94;;;18.59;91.92
51452;BME280;37521;52.020;-1.740;2022-07-25T12:19:20;99310.78;;;18.40;93.25
51452;BME280;37521;52.020;-1.740;2022-07-25T12:21:48;99315.50;;;18.17;93.03
51452;BME280;37521;52.020;-1.740;2022-07-25T12:24:17;99326.41;;;17.94;95.71
51452;BME280;37521;52.020;-1.740;2022-07-25T12:26:47;99332.97;;;17.69;100.00
51452;BME280;37521;52.020;-1.740;2022-07-25T12:29:15;99332.97;;;17.39;100.00
51452;BME280;37521;52.020;-1.740;2022-07-25T12:31:43;99326.50;;;17.21;100.00
51452;BME280;37521;52.020;-1.740;2022-07-25T12:34:11;99331.72;;;17.22;100.00
51452;BME280;37521;52.020;-1.740;2022-07-25T12:36:40;99331.38;;;17.36;100.00
51452;BME280;37521;52.020;-1.740;2022-07-25T12:39:11;99330.00;;;17.63;100.00
51452;BME280;37521;52.020;-1.740;2022-07-25T12:41:39;99314.81;;;17.84;100.00
51452;BME280;37521;52.020;-1.740;2022-07-25T12:44:10;99318.25;;;17.96;99.42
51452;BME280;37521;52.020;-1.740;2022-07-25T12:46:38;99320.53;;;18.10;98.74
51452;BME280;37521;52.020;-1.740;2022-07-25T12:49:15;99328.22;;;18.34;96.82
51452;BME280;37521;52.020;-1.740;2022-07-25T12:51:43;99332.50;;;18.66;93.23
51452;BME280;37521;52.020;-1.740;2022-07-25T12:54:12;99339.84;;;18.83;92.84
51452;BME280;37521;52.020;-1.740;2022-07-25T12:56:48;99336.59;;;18.99;93.58
51452;BME280;37521;52.020;-1.740;2022-07-25T12:59:18;99334.50;;;19.02;92.98